createdAt,value
2019-01-20T00:03:44.270Z,-2.51
2019-01-20T00:06:12.908Z,-2.59
2019-01-20T00:08:41.208Z,-2.66
2019-01-20T00:11:29.167Z,-2.71
2019-01-20T00:13:57.811Z,-2.76
2019-01-20T00:16:26.127Z,-2.83
2019-01-20T00:19:13.799Z,-2.87
2019-01-20T00:21:42.118Z,-2.91
2019-01-20T00:24:10.414Z,-2.92
2019-01-20T00:26:58.111Z,-2.92
2019-01-20T00:29:26.419Z,-2.93
2019-01-20T00:34:42.050Z,-2.96
2019-01-20T00:37:10.355Z,-2.97
2019-01-20T00:39:38.941Z,-3.01
2019-01-20T00:45:02.564Z,-2.97
2019-01-20T00:47:28.381Z,-2.95
2019-01-20T00:52:49.200Z,-2.97
2019-01-20T00:55:57.571Z,-2.97
2019-01-20T01:01:13.201Z,-2.91
2019-01-20T01:04:01.135Z,-2.87
2019-01-20T01:06:29.438Z,-2.86
2019-01-20T01:08:57.733Z,-2.86
2019-01-20T01:11:45.409Z,-2.85
2019-01-20T01:14:13.710Z,-2.83
2019-01-20T01:17:01.367Z,-2.84
2019-01-20T01:19:48.810Z,-2.82
2019-01-20T01:22:36.227Z,-2.86
2019-01-20T01:25:44.813Z,-2.88
2019-01-20T01:28:13.114Z,-2.87
2019-01-20T01:31:00.772Z,-2.91
2019-01-20T01:33:29.064Z,-2.92
2019-01-20T01:35:57.379Z,-2.95
2019-01-20T01:38:45.038Z,-2.98
2019-01-20T01:41:13.351Z,-2.98
2019-01-20T01:43:41.641Z,-2.95
2019-01-20T01:46:10.211Z,-2.92
2019-01-20T01:48:38.536Z,-2.94
2019-01-20T01:54:13.504Z,-3.02
2019-01-20T01:57:01.172Z,-3.08
2019-01-20T01:59:29.477Z,-3.14
2019-01-20T02:01:58.043Z,-3.15
2019-01-20T02:04:45.982Z,-3.14
2019-01-20T02:07:33.659Z,-3.18
2019-01-20T02:10:21.089Z,-3.25
2019-01-20T02:13:29.444Z,-3.36
2019-01-20T02:15:57.733Z,-3.41
2019-01-20T02:18:26.061Z,-3.48
2019-01-20T02:20:54.351Z,-3.48
2019-01-20T02:23:22.657Z,-3.48
2019-01-20T02:25:50.958Z,-3.48
2019-01-20T02:28:19.280Z,-3.52
2019-01-20T02:31:06.704Z,-3.56
2019-01-20T02:33:35.377Z,-3.59
2019-01-20T02:36:24.531Z,-3.65
2019-01-20T02:38:52.808Z,-3.70
2019-01-20T02:41:21.111Z,-3.75
2019-01-20T02:43:49.663Z,-3.75
2019-01-20T02:46:18.296Z,-3.75
2019-01-20T02:48:46.602Z,-3.73
2019-01-20T02:51:15.256Z,-3.75
2019-01-20T02:53:43.554Z,-3.74
2019-01-20T02:56:11.865Z,-3.70
2019-01-20T02:58:40.170Z,-3.69
2019-01-20T03:01:08.775Z,-3.68
2019-01-20T03:03:37.078Z,-3.66
2019-01-20T03:06:24.869Z,-3.64
2019-01-20T03:08:53.163Z,-3.67
2019-01-20T03:11:40.592Z,-3.66
2019-01-20T03:16:56.235Z,-3.74
2019-01-20T03:22:13.837Z,-3.94
2019-01-20T03:24:42.417Z,-3.94
2019-01-20T03:27:30.165Z,-3.92
2019-01-20T03:29:58.456Z,-3.90
2019-01-20T03:32:26.752Z,-3.87
2019-01-20T03:35:14.443Z,-3.91
2019-01-20T03:37:42.763Z,-3.93
2019-01-20T03:40:51.370Z,-3.94
2019-01-20T03:43:40.075Z,-4.00
2019-01-20T03:46:08.376Z,-4.10
2019-01-20T03:51:29.813Z,-4.14
2019-01-20T03:53:58.378Z,-4.10
2019-01-20T03:56:26.681Z,-4.08
2019-01-20T03:58:55.236Z,-4.12
2019-01-20T04:01:43.003Z,-4.17
2019-01-20T04:04:11.666Z,-4.20
2019-01-20T04:09:14.215Z,-4.24
2019-01-20T04:11:42.787Z,-4.25
2019-01-20T04:14:11.413Z,-4.29
2019-01-20T04:16:39.736Z,-4.31
2019-01-20T04:19:08.024Z,-4.33
2019-01-20T04:21:36.338Z,-4.37
2019-01-20T04:24:44.691Z,-4.40
2019-01-20T04:27:12.973Z,-4.41
2019-01-20T04:29:41.280Z,-4.42
2019-01-20T04:32:09.906Z,-4.41
2019-01-20T04:34:38.229Z,-4.44
2019-01-20T04:39:53.953Z,-4.51
2019-01-20T04:42:28.900Z,-4.45
2019-01-20T04:44:52.271Z,-4.41
2019-01-20T04:47:20.861Z,-4.44
2019-01-20T04:49:49.152Z,-4.48
2019-01-20T04:52:17.478Z,-4.53
2019-01-20T04:54:46.102Z,-4.52
2019-01-20T04:59:53.703Z,-4.47
2019-01-20T05:02:22.020Z,-4.45
2019-01-20T05:04:50.328Z,-4.50
2019-01-20T05:07:37.989Z,-4.53
2019-01-20T05:10:46.359Z,-4.55
2019-01-20T05:13:14.651Z,-4.58
2019-01-20T05:15:42.967Z,-4.63
2019-01-20T05:18:11.280Z,-4.69
2019-01-20T05:20:39.583Z,-4.73
2019-01-20T05:23:07.911Z,-4.74
2019-01-20T05:28:42.887Z,-4.75
2019-01-20T05:31:11.182Z,-4.78
2019-01-20T05:36:13.806Z,-4.77
2019-01-20T05:38:42.408Z,-4.75
2019-01-20T05:41:29.823Z,-4.73
2019-01-20T05:43:58.157Z,-4.75
2019-01-20T05:46:26.464Z,-4.76
2019-01-20T05:48:54.757Z,-4.73
2019-01-20T05:53:57.386Z,-4.67
2019-01-20T05:58:59.460Z,-4.67
2019-01-20T06:01:27.765Z,-4.68
2019-01-20T06:04:15.197Z,-4.69
2019-01-20T06:07:02.879Z,-4.70
2019-01-20T06:12:18.519Z,-4.73
2019-01-20T06:14:47.148Z,-4.78
2019-01-20T06:17:15.441Z,-4.87
2019-01-20T06:20:23.085Z,-4.88
2019-01-20T06:25:38.709Z,-4.91
2019-01-20T06:28:07.003Z,-4.97
2019-01-20T06:30:54.865Z,-5.02
2019-01-20T06:33:23.423Z,-5.05
2019-01-20T06:35:51.745Z,-5.06
2019-01-20T06:38:39.406Z,-5.07
2019-01-20T06:41:08.021Z,-5.09
2019-01-20T06:43:36.312Z,-5.07
2019-01-20T06:46:23.832Z,-5.06
2019-01-20T06:51:39.465Z,-5.07
2019-01-20T06:54:07.770Z,-5.05
2019-01-20T06:56:36.077Z,-5.04
2019-01-20T06:59:04.446Z,-5.02
2019-01-20T07:01:52.144Z,-4.95
2019-01-20T07:04:20.464Z,-4.92
2019-01-20T07:06:49.041Z,-4.91
2019-01-20T07:09:17.636Z,-4.88
2019-01-20T07:12:05.073Z,-4.88
2019-01-20T07:14:33.362Z,-4.94
2019-01-20T07:17:01.708Z,-4.99
2019-01-20T07:19:29.966Z,-5.05
2019-01-20T07:21:58.271Z,-5.08
2019-01-20T07:24:26.584Z,-5.11
2019-01-20T07:26:54.883Z,-5.13
2019-01-20T07:29:24.700Z,-5.16
2019-01-20T07:32:12.821Z,-5.19
2019-01-20T07:34:41.459Z,-5.19
2019-01-20T07:37:10.145Z,-5.16
2019-01-20T07:39:38.450Z,-5.15
2019-01-20T07:44:41.621Z,-5.07
2019-01-20T07:47:10.614Z,-5.01
2019-01-20T07:49:38.920Z,-4.94
2019-01-20T07:52:07.238Z,-4.88
2019-01-20T07:57:22.894Z,-4.81
2019-01-20T08:00:10.639Z,-4.75
2019-01-20T08:02:58.083Z,-4.71
2019-01-20T08:08:13.800Z,-4.69
2019-01-20T08:10:42.177Z,-4.62
2019-01-20T08:13:30.115Z,-4.55
2019-01-20T08:15:58.418Z,-4.48
2019-01-20T08:18:26.716Z,-4.40
2019-01-20T08:21:14.410Z,-4.30
2019-01-20T08:24:02.367Z,-4.17
2019-01-20T08:26:30.955Z,-4.17
2019-01-20T08:28:59.260Z,-4.20
2019-01-20T08:34:01.472Z,-4.06
2019-01-20T08:36:29.787Z,-3.97
2019-01-20T08:39:17.438Z,-3.92
2019-01-20T08:41:45.770Z,-3.94
2019-01-20T08:44:14.079Z,-3.93
2019-01-20T08:47:22.476Z,-3.89
2019-01-20T08:50:10.585Z,-3.82
2019-01-20T08:52:38.955Z,-3.75
2019-01-20T08:55:47.257Z,-3.65
2019-01-20T08:58:55.706Z,-3.61
2019-01-20T09:01:24.039Z,-3.54
2019-01-20T09:03:52.367Z,-3.49
2019-01-20T09:06:20.689Z,-3.43
2019-01-20T09:08:48.999Z,-3.35
2019-01-20T09:13:51.346Z,-3.19
2019-01-20T09:16:19.657Z,-3.12
2019-01-20T09:18:47.964Z,-3.06
2019-01-20T09:21:16.280Z,-3.04
2019-01-20T09:26:32.176Z,-2.99
2019-01-20T09:29:00.488Z,-2.95
2019-01-20T09:31:28.792Z,-2.95
2019-01-20T09:33:57.416Z,-2.96
2019-01-20T09:36:25.738Z,-2.92
2019-01-20T09:39:13.864Z,-2.88
2019-01-20T09:42:01.276Z,-2.83
2019-01-20T09:47:22.800Z,-2.72
2019-01-20T09:49:51.121Z,-2.61
2019-01-20T09:52:38.780Z,-2.54
2019-01-20T09:55:47.130Z,-2.49
2019-01-20T09:58:34.791Z,-2.44
2019-01-20T10:01:03.099Z,-2.42
2019-01-20T10:03:50.531Z,-2.34
2019-01-20T10:06:37.969Z,-2.27
2019-01-20T10:09:46.576Z,-2.18
2019-01-20T10:12:34.278Z,-2.11
2019-01-20T10:15:02.924Z,-2.08
2019-01-20T10:17:31.611Z,-2.04
2019-01-20T10:20:00.019Z,-2.02
2019-01-20T10:22:28.378Z,-2.00
2019-01-20T10:25:15.961Z,-1.92
2019-01-20T10:27:44.278Z,-1.86
2019-01-20T10:30:33.261Z,-1.77
2019-01-20T10:33:41.590Z,-1.75
2019-01-20T10:36:09.898Z,-1.73
2019-01-20T10:38:38.223Z,-1.66
2019-01-20T10:41:25.996Z,-1.61
2019-01-20T10:43:54.621Z,-1.57
2019-01-20T10:48:56.800Z,-1.52
2019-01-20T10:51:44.740Z,-1.55
2019-01-20T10:54:13.330Z,-1.52
2019-01-20T10:56:42.024Z,-1.45
2019-01-20T10:59:10.314Z,-1.44
2019-01-20T11:01:38.606Z,-1.35
2019-01-20T11:04:46.974Z,-1.31
2019-01-20T11:07:16.311Z,-1.26
2019-01-20T11:09:45.396Z,-1.20
2019-01-20T11:15:01.038Z,-1.07
2019-01-20T11:17:29.656Z,-1.01
2019-01-20T11:20:17.357Z,-0.98
2019-01-20T11:25:46.813Z,-0.86
2019-01-20T11:28:15.402Z,-0.84
2019-01-20T11:30:43.713Z,-0.80
2019-01-20T11:33:12.269Z,-0.75
2019-01-20T11:35:40.569Z,-0.71
2019-01-20T11:38:28.320Z,-0.64
2019-01-20T11:40:56.955Z,-0.63
2019-01-20T11:43:25.333Z,-0.56
2019-01-20T11:46:13.015Z,-0.53
2019-01-20T11:49:00.454Z,-0.53
2019-01-20T11:54:35.429Z,-0.45
2019-01-20T11:57:23.184Z,-0.39
2019-01-20T11:59:51.759Z,-0.35
2019-01-20T12:06:15.441Z,-0.12
2019-01-20T12:09:02.848Z,-0.13
2019-01-20T12:11:31.176Z,-0.09
2019-01-20T12:13:59.495Z,-0.03
2019-01-20T12:16:27.791Z,-0.03
2019-01-20T12:19:15.486Z,-0.01
2019-01-20T12:22:02.917Z,0.02
2019-01-20T12:24:31.218Z,0.12
2019-01-20T12:26:59.516Z,0.15
2019-01-20T12:29:27.833Z,0.20
2019-01-20T12:34:43.479Z,0.26
2019-01-20T12:37:31.076Z,0.28
2019-01-20T12:39:59.383Z,0.34
2019-01-20T12:42:27.677Z,0.37
2019-01-20T12:47:30.140Z,0.46
2019-01-20T12:50:17.599Z,0.52
2019-01-20T12:52:45.879Z,0.56
2019-01-20T12:55:54.217Z,0.63
2019-01-20T12:59:02.535Z,0.63
2019-01-20T13:01:30.876Z,0.66
2019-01-20T13:04:18.785Z,0.72
2019-01-20T13:06:47.088Z,0.76
2019-01-20T13:09:15.695Z,0.77
2019-01-20T13:12:03.615Z,0.80
2019-01-20T13:17:19.236Z,0.91
2019-01-20T13:19:47.523Z,0.95
2019-01-20T13:22:15.816Z,0.98
2019-01-20T13:24:44.125Z,1.00
2019-01-20T13:30:02.030Z,1.07
2019-01-20T13:35:57.687Z,1.12
2019-01-20T13:38:45.596Z,1.16
2019-01-20T13:41:54.194Z,1.23
2019-01-20T13:47:09.813Z,1.29
2019-01-20T13:54:59.558Z,1.35
2019-01-20T13:57:27.865Z,1.37
2019-01-20T14:00:35.111Z,1.41
2019-01-20T14:03:22.535Z,1.46
2019-01-20T14:05:52.209Z,1.46
2019-01-20T14:08:20.863Z,1.46
2019-01-20T14:10:49.397Z,1.48
2019-01-20T14:13:37.331Z,1.49
2019-01-20T14:16:24.992Z,1.51
2019-01-20T14:19:13.504Z,1.53
2019-01-20T14:21:41.787Z,1.55
2019-01-20T14:27:17.049Z,1.59
2019-01-20T14:30:04.480Z,1.58
2019-01-20T14:32:32.773Z,1.60
2019-01-20T14:35:20.459Z,1.62
2019-01-20T14:40:55.475Z,1.64
2019-01-20T14:43:43.139Z,1.63
2019-01-20T14:46:30.820Z,1.63
2019-01-20T14:48:59.189Z,1.64
2019-01-20T14:54:20.649Z,1.65
2019-01-20T14:57:08.327Z,1.67
2019-01-20T14:59:36.634Z,1.66
2019-01-20T15:02:24.393Z,1.63
2019-01-20T15:05:12.021Z,1.61
2019-01-20T15:07:40.652Z,1.61
2019-01-20T15:10:48.989Z,1.59
2019-01-20T15:15:51.737Z,1.53
2019-01-20T15:18:20.056Z,1.51
2019-01-20T15:20:48.353Z,1.48
2019-01-20T15:23:16.647Z,1.48
2019-01-20T15:28:38.832Z,1.40
2019-01-20T15:36:51.567Z,1.26
2019-01-20T15:42:07.182Z,1.15
2019-01-20T15:44:54.852Z,1.10
2019-01-20T15:47:23.165Z,1.04
2019-01-20T15:50:10.845Z,0.99
2019-01-20T15:52:39.144Z,0.96
2019-01-20T15:55:26.771Z,0.88
2019-01-20T15:57:55.099Z,0.88
2019-01-20T16:01:03.395Z,0.83
2019-01-20T16:03:51.377Z,0.79
2019-01-20T16:06:19.682Z,0.76
2019-01-20T16:09:07.367Z,0.70
2019-01-20T16:11:55.085Z,0.67
2019-01-20T16:14:23.390Z,0.61
2019-01-20T16:19:44.500Z,0.56
2019-01-20T16:22:12.817Z,0.51
2019-01-20T16:24:41.117Z,0.49
2019-01-20T16:32:37.557Z,0.39
2019-01-20T16:35:46.167Z,0.34
2019-01-20T16:38:33.893Z,0.29
2019-01-20T16:41:02.476Z,0.25
2019-01-20T16:43:50.163Z,0.18
2019-01-20T16:46:55.822Z,0.14
2019-01-20T16:49:24.146Z,0.08
2019-01-20T16:54:40.048Z,0.09
2019-01-20T16:57:27.990Z,0.08
2019-01-20T16:59:56.297Z,0.08
2019-01-20T17:02:24.611Z,0.06
2019-01-20T17:04:52.917Z,-0.01
2019-01-20T17:09:55.202Z,-0.16
2019-01-20T17:12:42.903Z,-0.27
2019-01-20T17:15:42.512Z,-0.35
2019-01-20T17:24:17.968Z,-0.63
2019-01-20T17:27:05.411Z,-0.69
2019-01-20T17:29:33.765Z,-0.72
2019-01-20T17:32:03.591Z,-0.73
2019-01-20T17:34:32.123Z,-0.77
2019-01-20T17:37:00.823Z,-0.80
2019-01-20T17:39:48.240Z,-0.83
2019-01-20T17:42:16.560Z,-0.89
2019-01-20T17:44:44.867Z,-0.95
2019-01-20T17:47:13.175Z,-0.97
2019-01-20T17:49:41.782Z,-1.02
2019-01-20T17:52:10.078Z,-1.04
2019-01-20T17:54:38.402Z,-1.06
2019-01-20T17:57:06.709Z,-1.06
2019-01-20T18:02:28.666Z,-1.07
2019-01-20T18:04:56.986Z,-1.15
2019-01-20T18:07:25.300Z,-1.22
2019-01-20T18:12:40.943Z,-1.26
2019-01-20T18:18:15.925Z,-1.28
2019-01-20T18:20:44.521Z,-1.32
2019-01-20T18:23:12.848Z,-1.37
2019-01-20T18:26:21.182Z,-1.43
2019-01-20T18:28:49.508Z,-1.46
2019-01-20T18:31:17.879Z,-1.50
2019-01-20T18:36:19.761Z,-1.59
2019-01-20T18:38:48.066Z,-1.61
2019-01-20T18:41:16.388Z,-1.62
2019-01-20T18:43:44.711Z,-1.65
2019-01-20T18:46:32.412Z,-1.73
2019-01-20T18:49:00.736Z,-1.78
2019-01-20T18:54:16.708Z,-1.81
2019-01-20T18:57:04.384Z,-1.81
2019-01-20T18:59:52.044Z,-1.83
2019-01-20T19:02:39.691Z,-1.85
2019-01-20T19:08:20.600Z,-1.94
2019-01-20T19:13:22.407Z,-2.05
2019-01-20T19:16:09.854Z,-2.07
2019-01-20T19:21:25.510Z,-2.12
2019-01-20T19:26:41.159Z,-2.17
2019-01-20T19:29:28.803Z,-2.23
2019-01-20T19:32:16.585Z,-2.28
2019-01-20T19:34:44.878Z,-2.32
2019-01-20T19:37:13.190Z,-2.35
2019-01-20T19:39:41.505Z,-2.39
2019-01-20T19:42:09.808Z,-2.41
2019-01-20T19:47:12.466Z,-2.43
2019-01-20T19:52:14.723Z,-2.44
2019-01-20T19:54:43.062Z,-2.46
2019-01-20T19:57:11.357Z,-2.49
2019-01-20T19:59:59.009Z,-2.54
2019-01-20T20:02:27.305Z,-2.57
2019-01-20T20:04:55.867Z,-2.60
2019-01-20T20:07:43.563Z,-2.62
2019-01-20T20:10:51.936Z,-2.64
2019-01-20T20:13:39.368Z,-2.68
2019-01-20T20:16:07.701Z,-2.70
2019-01-20T20:18:36.006Z,-2.73
2019-01-20T20:21:04.324Z,-2.78
2019-01-20T20:23:32.634Z,-2.80
2019-01-20T20:26:20.071Z,-2.83
2019-01-20T20:31:35.718Z,-2.84
2019-01-20T20:37:12.108Z,-2.85
2019-01-20T20:42:47.092Z,-2.89
2019-01-20T20:45:34.999Z,-2.88
2019-01-20T20:50:58.099Z,-2.99
2019-01-20T20:53:45.887Z,-3.03
2019-01-20T20:56:14.236Z,-3.08
2019-01-20T20:59:04.306Z,-3.06
2019-01-20T21:01:32.616Z,-3.02
2019-01-20T21:04:01.209Z,-3.00
2019-01-20T21:06:29.792Z,-3.00
2019-01-20T21:09:17.440Z,-3.01
2019-01-20T21:14:20.057Z,-3.03
2019-01-20T21:17:08.123Z,-3.10
2019-01-20T21:19:36.426Z,-3.17
2019-01-20T21:22:05.011Z,-3.24
2019-01-20T21:24:33.317Z,-3.25
2019-01-20T21:30:29.303Z,-3.28
2019-01-20T21:32:57.900Z,-3.35
2019-01-20T21:35:45.565Z,-3.39
2019-01-20T21:38:13.878Z,-3.40
2019-01-20T21:41:01.306Z,-3.43
2019-01-20T21:43:29.620Z,-3.45
2019-01-20T21:45:57.928Z,-3.44
2019-01-20T21:51:19.190Z,-3.52
2019-01-20T21:53:47.515Z,-3.54
2019-01-20T21:56:15.799Z,-3.56
2019-01-20T22:01:31.447Z,-3.63
2019-01-20T22:03:59.755Z,-3.69
2019-01-20T22:06:28.069Z,-3.70
2019-01-20T22:09:15.739Z,-3.69
2019-01-20T22:11:44.359Z,-3.68
2019-01-20T22:14:12.954Z,-3.69
2019-01-20T22:16:41.241Z,-3.73
2019-01-20T22:19:09.566Z,-3.75
2019-01-20T22:21:37.860Z,-3.75
2019-01-20T22:24:06.179Z,-3.75
2019-01-20T22:26:34.491Z,-3.77
2019-01-20T22:29:03.120Z,-3.80
2019-01-20T22:31:31.695Z,-3.82
2019-01-20T22:34:19.396Z,-3.82
2019-01-20T22:36:47.699Z,-3.80
2019-01-20T22:39:16.008Z,-3.81
2019-01-20T22:41:44.347Z,-3.80
2019-01-20T22:44:31.744Z,-3.76
2019-01-20T22:47:00.562Z,-3.82
2019-01-20T22:49:30.087Z,-3.86
2019-01-20T22:51:58.399Z,-3.89
2019-01-20T22:54:26.706Z,-3.91
2019-01-20T22:56:55.323Z,-3.93
2019-01-20T22:59:23.618Z,-3.98
2019-01-20T23:02:11.263Z,-4.00
2019-01-20T23:08:05.374Z,-4.06
2019-01-20T23:10:53.043Z,-4.13
2019-01-20T23:15:54.880Z,-4.20
2019-01-20T23:18:42.559Z,-4.22
2019-01-20T23:21:10.870Z,-4.22
2019-01-20T23:23:39.204Z,-4.28
2019-01-20T23:26:47.555Z,-4.32
2019-01-20T23:29:17.100Z,-4.35
2019-01-20T23:31:45.911Z,-4.35
2019-01-20T23:34:14.256Z,-4.34
2019-01-20T23:37:01.679Z,-4.32
2019-01-20T23:39:30.315Z,-4.31
2019-01-20T23:41:58.619Z,-4.28
2019-01-20T23:44:27.180Z,-4.27
2019-01-20T23:46:55.503Z,-4.30
2019-01-20T23:49:23.803Z,-4.35
2019-01-20T23:51:52.155Z,-4.37
2019-01-20T23:54:40.131Z,-4.42
2019-01-20T23:59:42.162Z,-4.48
